Terminal Aerodrome Forecast
Issued by NWS

Home | Current Version | Previous Version | Text Only | Print | Product List | Glossary On
Versions: 1 2 3 4 5 6 7 8 9 10 11 12 13 14 15
000
FTUS43 KMPX 211447 AAA
TAFAXN
TAF AMD
KAXN 211447Z 2115/2212 17014KT P6SM BKN025 OVC050
      TEMPO 2115/2119 SCT025
     FM211900 19014KT 6SM -SHRA OVC025
     FM212200 24011KT P6SM OVC040
     FM220000 27012KT P6SM SCT090=

USA.gov is the U.S. government's official web portal to all federal, state and local government web resources and services.